Time;durP1;ratioP1;P1;durP2;ratioP2;P2;SDS_P1;SDS_P2;PMS_P1;PMS_P2;Temp;Humidity;BMP_temperature;BMP_pressure;BME280_temperature;BME280_humidity;BME280_pressure;Samples;Min_cycle;Max_cycle;Signal;HPM_P1;HPM_P2
2022/11/18 11:07:36;;;;;;;3.67;1.03;;;;;;;7.26;97.49;95346.75;2063155;27;1289065;-66
2022/11/18 11:08:51;;;;;;;2.22;1.02;;;;;;;7.39;96.46;95349.53;2089560;28;20258;-67
2022/11/18 11:10:07;;;;;;;2.38;1.00;;;;;;;7.54;96.36;95349.63;2080777;28;20608;-65
2022/11/18 11:11:24;;;;;;;2.38;1.10;;;;;;;7.49;96.50;95348.13;2079558;28;20211;-66
2022/11/18 11:12:29;;;;;;;2.35;0.90;;;;;;;7.51;95.45;95353.22;2077103;28;20235;-66
2022/11/18 11:13:36;;;;;;;2.15;0.93;;;;;;;7.38;95.24;95344.41;2077113;28;20706;-65
2022/11/18 11:14:49;;;;;;;3.72;0.90;;;;;;;7.29;94.84;95354.38;2078210;28;20437;-65
2022/11/18 11:15:54;;;;;;;3.05;1.10;;;;;;;7.20;95.83;95354.84;2078079;28;20202;-65
2022/11/18 11:17:01;;;;;;;3.47;1.00;;;;;;;7.17;95.23;95349.81;2081101;28;20637;-66
2022/11/18 11:18:42;;;;;;;3.05;1.25;;;;;;;7.07;95.69;95354.63;2080693;28;20198;-66
2022/11/18 11:20:05;;;;;;;5.10;1.25;;;;;;;7.14;96.77;95355.16;2078853;28;20681;-65
2022/11/18 11:21:14;;;;;;;6.03;1.30;;;;;;;7.19;97.39;95359.19;2081292;28;20205;-66
2022/11/18 11:22:16;;;;;;;3.58;1.23;;;;;;;7.08;96.23;95350.28;2080415;28;20635;-66
2022/11/18 11:23:17;;;;;;;2.20;1.20;;;;;;;7.06;96.83;95349.50;2079607;28;20251;-67
2022/11/18 12:27:35;;;;;;;7.82;1.90;;;;;;;8.15;94.82;95376.66;2087504;28;20560;-64
2022/11/18 12:28:42;;;;;;;4.03;2.40;;;;;;;8.22;94.70;95384.97;2084908;28;20348;-65
2022/11/18 12:29:43;;;;;;;6.28;2.10;;;;;;;8.49;94.30;95377.41;2081544;28;20232;-65
2022/11/18 12:30:44;;;;;;;9.50;2.40;;;;;;;8.67;92.82;95385.91;2081357;28;20294;-65
2022/11/18 12:31:50;;;;;;;3.20;1.70;;;;;;;8.68;92.25;95379.78;2078881;28;20201;-65
2022/11/18 12:32:55;;;;;;;4.93;1.92;;;;;;;8.43;91.63;95378.56;2081185;28;20666;-65
2022/11/18 12:34:03;;;;;;;5.28;2.08;;;;;;;8.23;91.46;95379.69;2081498;28;20626;-65
2022/11/18 12:35:26;;;;;;;7.75;2.53;;;;;;;7.98;91.46;95382.78;2081411;28;20671;-65
2022/11/18 12:36:35;;;;;;;4.15;2.00;;;;;;;7.99;92.75;95381.88;2082203;28;20198;-65
2022/11/18 12:37:52;;;;;;;6.97;2.10;;;;;;;7.88;94.01;95379.84;2081209;28;20283;-65
2022/11/18 12:38:54;;;;;;;6.10;2.58;;;;;;;7.97;94.54;95373.31;2080563;28;20224;-65
2022/11/18 12:39:57;;;;;;;8.95;2.45;;;;;;;8.02;94.98;95384.28;2082799;28;20639;-65
2022/11/18 12:43:45;;;;;;;7.32;2.10;;;;;;;7.84;94.28;95384.34;2082912;28;20211;-65
2022/11/18 12:44:22;;;;;;;6.05;1.70;;;;;;;7.70;93.73;95381.66;2076637;28;20401;-65
2022/11/18 12:45:39;;;;;;;5.50;1.70;;;;;;;7.72;94.66;95397.16;2076029;28;20212;-65
2022/11/18 12:46:48;;;;;;;3.22;1.55;;;;;;;7.64;95.54;95395.84;2079987;28;20200;-66
2022/11/18 12:47:52;;;;;;;3.28;1.70;;;;;;;7.69;93.81;95395.56;2082531;28;20238;-65
2022/11/18 12:48:53;;;;;;;5.90;1.63;;;;;;;7.67;93.85;95400.03;2080749;28;20372;-65
2022/11/18 12:49:58;;;;;;;6.40;1.70;;;;;;;7.88;94.21;95398.03;2079907;28;20205;-66
2022/11/18 12:51:14;;;;;;;7.45;1.85;;;;;;;8.71;90.41;95399.59;2079693;28;20204;-66
2022/11/18 12:52:28;;;;;;;3.70;1.60;;;;;;;9.55;87.66;95392.97;2080037;28;20219;-65
2022/11/18 12:53:36;;;;;;;8.45;1.52;;;;;;;9.84;86.75;95390.34;2078640;28;20686;-67
2022/11/18 12:54:44;;;;;;;4.63;1.17;;;;;;;9.48;86.17;95346.44;2078678;28;20204;-67
2022/11/18 12:55:45;;;;;;;3.30;1.60;;;;;;;9.55;86.42;95383.41;2079382;28;20676;-67
2022/11/18 12:56:48;;;;;;;2.70;1.40;;;;;;;9.31;87.12;95377.91;2079374;28;20233;-67
2022/11/18 12:57:51;;;;;;;5.57;1.85;;;;;;;8.82;87.90;95377.25;2087264;28;20195;-67
2022/11/18 12:58:54;;;;;;;8.48;1.75;;;;;;;8.76;87.96;95398.44;2089462;28;20227;-67
2022/11/18 12:59:56;;;;;;;6.65;1.45;;;;;;;8.68;89.35;95377.19;2082424;28;20552;-67
2022/11/18 13:01:11;;;;;;;5.70;1.73;;;;;;;8.62;89.53;95388.81;2081856;28;20660;-67
2022/11/18 13:02:20;;;;;;;3.92;1.58;;;;;;;8.31;90.08;95395.69;2079958;28;20197;-67
2022/11/18 13:03:27;;;;;;;3.17;1.10;;;;;;;7.96;88.78;95380.28;2077648;28;20747;-66
2022/11/18 13:04:29;;;;;;;7.20;1.27;;;;;;;7.94;89.73;95394.28;2082063;28;20197;-66
2022/11/18 13:05:33;;;;;;;3.25;1.55;;;;;;;7.88;90.65;95394.59;2080414;28;20255;-66
2022/11/18 13:06:37;;;;;;;4.13;1.60;;;;;;;7.66;89.90;95393.97;2088379;28;20197;-65
2022/11/18 13:09:19;;;;;;;5.15;1.30;;;;;;;7.51;91.96;95384.41;2078439;28;20232;-66
2022/11/18 13:10:26;;;;;;;4.72;1.08;;;;;;;7.66;90.97;95398.34;2077241;28;20205;-65
2022/11/18 13:11:49;;;;;;;4.05;1.25;;;;;;;7.55;91.03;95398.91;2078910;28;20200;-65
2022/11/18 13:12:52;;;;;;;5.05;1.75;;;;;;;7.56;90.50;95402.34;2080456;28;20658;-65
2022/11/18 13:18:10;;;;;;;11.52;2.60;;;;;;;9.17;84.39;95396.94;2082792;28;20189;-64
2022/11/18 13:19:21;;;;;;;5.72;1.60;;;;;;;9.07;84.18;95399.25;2082207;28;20271;-64
2022/11/18 13:20:34;;;;;;;4.35;1.10;;;;;;;9.64;81.19;95413.28;2080943;28;20204;-64
2022/11/18 13:24:22;;;;;;;2.78;1.00;;;;;;;9.29;82.62;95411.00;2083468;28;20248;-64
2022/11/18 13:25:25;;;;;;;4.45;1.27;;;;;;;9.39;83.25;95411.31;2081007;28;20197;-64
2022/11/18 13:26:32;;;;;;;5.13;1.60;;;;;;;9.34;84.15;95413.34;2082782;28;20209;-65
2022/11/18 13:28:10;;;;;;;8.38;1.88;;;;;;;9.06;83.22;95412.34;2080689;28;20705;-64
2022/11/18 13:29:21;;;;;;;1.70;1.00;;;;;;;8.86;84.17;95419.53;2080491;28;20611;-65
2022/11/18 13:30:23;;;;;;;5.97;1.25;;;;;;;9.02;84.69;95409.09;2082786;28;20204;-64
2022/11/18 13:31:30;;;;;;;2.10;1.20;;;;;;;8.88;84.53;95411.66;2081862;28;20212;-64
2022/11/18 13:32:32;;;;;;;4.70;1.38;;;;;;;8.81;84.77;95405.94;2088097;28;20324;-64
2022/11/18 13:33:37;;;;;;;2.72;1.15;;;;;;;9.03;82.87;95405.56;2083712;28;20303;-64
2022/11/18 13:34:52;;;;;;;6.55;1.27;;;;;;;9.06;83.09;95410.59;2087898;28;20204;-64
2022/11/18 13:35:53;;;;;;;9.35;1.50;;;;;;;8.96;83.24;95391.22;2084031;28;20204;-64
2022/11/18 13:36:58;;;;;;;4.30;1.63;;;;;;;9.68;81.41;95403.50;2080341;28;20208;-66
2022/11/18 13:38:01;;;;;;;5.05;1.40;;;;;;;10.21;79.62;95407.16;2078874;28;20205;-64
2022/11/18 13:39:04;;;;;;;8.45;1.25;;;;;;;10.33;79.42;95395.09;2072574;28;20228;-64
2022/11/18 13:40:18;;;;;;;4.55;1.30;;;;;;;10.08;77.61;95399.28;2075006;28;20198;-64
2022/11/18 13:41:31;;;;;;;8.95;1.30;;;;;;;10.17;80.49;95386.56;2075413;28;20202;-64
2022/11/18 13:42:32;;;;;;;3.67;1.20;;;;;;;10.30;78.33;95397.91;2076836;28;20712;-64
2022/11/18 13:43:34;;;;;;;3.55;1.23;;;;;;;10.11;78.00;95393.84;2074082;28;20217;-63
2022/11/18 13:44:37;;;;;;;3.55;1.10;;;;;;;9.93;77.95;95392.41;2074424;28;20236;-63
2022/11/18 13:45:39;;;;;;;2.53;1.00;;;;;;;9.99;77.21;95391.19;2074339;28;20204;-64
2022/11/18 13:46:50;;;;;;;3.35;1.23;;;;;;;9.97;76.44;95394.72;2076612;28;20289;-63
2022/11/18 13:47:58;;;;;;;3.25;1.10;;;;;;;9.98;78.90;95395.56;2076255;28;20218;-63
2022/11/18 13:48:59;;;;;;;3.20;1.05;;;;;;;10.19;76.92;95377.72;2074961;28;20232;-66
2022/11/18 13:50:03;;;;;;;6.00;1.50;;;;;;;10.67;75.75;95398.19;2076227;28;20233;-63
2022/11/18 13:51:05;;;;;;;2.95;1.15;;;;;;;10.75;74.51;95405.53;2074374;28;20308;-63
2022/11/18 13:52:15;;;;;;;3.38;1.35;;;;;;;10.67;75.07;95399.97;2074523;28;20642;-65
2022/11/18 13:53:17;;;;;;;2.22;1.23;;;;;;;10.76;75.29;95407.22;2072213;28;20286;-65
2022/11/18 13:54:25;;;;;;;3.28;0.90;;;;;;;11.00;73.87;95401.31;2067124;28;20200;-64
2022/11/18 13:55:35;;;;;;;2.42;1.20;;;;;;;10.77;73.76;95406.28;2074943;28;20206;-63
2022/11/18 13:56:39;;;;;;;4.78;1.10;;;;;;;9.95;76.17;95400.97;2074343;28;20203;-64
2022/11/18 13:57:44;;;;;;;4.28;1.35;;;;;;;9.69;78.25;95405.16;2074008;28;20227;-64
2022/11/18 13:58:49;;;;;;;4.30;1.08;;;;;;;9.55;77.69;95409.47;2070944;28;20820;-64
2022/11/18 14:00:24;;;;;;;2.80;1.30;;;;;;;9.53;79.06;95411.31;2073990;28;20209;-64
2022/11/18 14:01:31;;;;;;;6.50;1.55;;;;;;;9.55;78.25;95408.59;2077045;28;20197;-64
2022/11/18 14:02:45;;;;;;;2.33;1.00;;;;;;;9.29;79.32;95406.66;2075649;28;20821;-64
2022/11/18 14:03:51;;;;;;;3.30;1.50;;;;;;;9.09;78.76;95417.38;2074587;28;20243;-63
2022/11/18 14:04:56;;;;;;;5.18;1.00;;;;;;;8.61;80.31;95420.13;2073255;28;20203;-64
2022/11/18 14:05:58;;;;;;;5.55;1.27;;;;;;;9.02;81.29;95398.69;2074292;28;20194;-64
2022/11/18 14:07:34;;;;;;;7.53;1.52;;;;;;;9.94;77.96;95423.59;2065044;28;20199;-63
2022/11/18 14:08:38;;;;;;;4.25;1.40;;;;;;;9.64;78.02;95406.28;2063811;28;20235;-64
2022/11/18 14:09:59;;;;;;;7.15;1.40;;;;;;;9.50;78.86;95421.06;2068519;28;20203;-64
2022/11/18 14:11:02;;;;;;;2.47;1.38;;;;;;;9.40;80.54;95420.81;2063602;28;20238;-64
2022/11/18 14:12:27;;;;;;;12.93;2.33;;;;;;;9.32;78.67;95423.88;2063828;28;20210;-65
2022/11/18 14:13:34;;;;;;;2.85;1.50;;;;;;;9.31;79.08;95420.41;2065557;28;20923;-64
2022/11/18 14:14:37;;;;;;;2.10;1.33;;;;;;;9.15;79.44;95394.44;2068021;28;20211;-64
2022/11/18 14:15:39;;;;;;;5.43;1.23;;;;;;;9.44;78.95;95420.50;2062937;28;20838;-64
2022/11/18 14:16:44;;;;;;;2.35;1.10;;;;;;;9.27;78.60;95421.53;2063655;28;20195;-63
2022/11/18 14:17:57;;;;;;;10.35;4.70;;;;;;;9.56;78.27;95429.38;2067898;28;20290;-63
2022/11/18 14:19:04;;;;;;;13.38;4.40;;;;;;;9.78;77.20;95425.47;2064790;28;20387;-64
2022/11/18 14:20:15;;;;;;;12.43;3.85;;;;;;;10.07;76.54;95425.47;2062981;28;20286;-64
2022/11/18 14:21:31;;;;;;;3.78;1.80;;;;;;;9.85;76.45;95420.72;2064369;28;20203;-63
2022/11/18 14:22:33;;;;;;;6.80;1.23;;;;;;;10.12;76.00;95434.66;2066496;28;20294;-66
2022/11/18 14:23:35;;;;;;;4.15;1.50;;;;;;;10.41;76.03;95434.66;2064378;28;20270;-66
2022/11/18 14:24:37;;;;;;;2.70;1.20;;;;;;;10.39;74.76;95436.50;2065421;28;20341;-69
2022/11/18 14:25:43;;;;;;;2.60;1.25;;;;;;;10.36;74.53;95422.81;2064750;28;20199;-66
2022/11/18 14:26:45;;;;;;;3.97;1.10;;;;;;;10.43;74.75;95418.88;2066254;28;20210;-65
2022/11/18 14:27:49;;;;;;;6.80;1.55;;;;;;;10.45;74.80;95428.28;2071002;28;20203;-66
2022/11/18 14:28:56;;;;;;;3.20;1.20;;;;;;;10.70;74.23;95431.09;2068441;28;20623;-66
2022/11/18 14:29:57;;;;;;;4.78;1.20;;;;;;;10.50;73.50;95412.34;2068128;28;20198;-66
2022/11/18 14:31:02;;;;;;;2.33;1.10;;;;;;;10.69;73.63;95427.66;2065392;28;20218;-66
2022/11/18 14:32:10;;;;;;;5.72;1.10;;;;;;;10.66;74.35;95430.44;2066838;28;20200;-66
2022/11/18 14:33:11;;;;;;;7.60;1.40;;;;;;;10.42;74.02;95425.03;2065660;28;20206;-66
2022/11/18 14:34:16;;;;;;;3.28;1.30;;;;;;;9.95;75.25;95427.03;2067245;28;20740;-66
2022/11/18 14:35:17;;;;;;;5.57;1.70;;;;;;;9.70;75.47;95414.66;2067559;28;20712;-66
2022/11/18 14:36:19;;;;;;;3.65;1.30;;;;;;;9.49;76.86;95417.63;2067396;28;20199;-66
2022/11/18 14:37:20;;;;;;;5.60;1.38;;;;;;;9.23;77.96;95435.66;2064965;28;20237;-66
2022/11/18 14:38:30;;;;;;;2.88;1.35;;;;;;;8.99;78.39;95417.91;2063591;28;20291;-66
2022/11/18 14:39:56;;;;;;;5.95;1.90;;;;;;;8.72;78.91;95427.31;2065767;28;20590;-66
2022/11/18 14:41:00;;;;;;;8.90;1.50;;;;;;;8.53;80.11;95432.72;2059090;28;20206;-66
2022/11/18 14:42:01;;;;;;;6.57;1.88;;;;;;;8.41;81.13;95436.81;2057567;28;20200;-66
2022/11/18 14:43:03;;;;;;;9.48;2.17;;;;;;;8.37;82.58;95436.13;2059782;28;20243;-66
2022/11/18 14:44:09;;;;;;;9.00;1.88;;;;;;;8.14;82.01;95417.44;2074794;28;20219;-67
2022/11/18 14:45:10;;;;;;;3.40;1.60;;;;;;;8.33;82.44;95437.25;2074470;28;20676;-66
2022/11/18 14:46:18;;;;;;;4.43;1.63;;;;;;;8.92;81.35;95445.22;2076499;28;20292;-66
2022/11/18 14:47:28;;;;;;;5.32;1.50;;;;;;;9.54;80.34;95441.66;2075618;28;20281;-64
2022/11/18 14:48:31;;;;;;;5.25;1.58;;;;;;;9.79;79.95;95443.63;2074374;28;20252;-64
2022/11/18 14:49:37;;;;;;;5.38;1.35;;;;;;;9.67;76.43;95443.53;2076524;28;20287;-64
2022/11/18 14:50:38;;;;;;;3.38;1.48;;;;;;;9.90;76.87;95442.13;2076125;28;20204;-64
2022/11/18 14:51:39;;;;;;;3.85;1.55;;;;;;;10.03;76.29;95426.56;2075626;28;20219;-64
2022/11/18 14:52:41;;;;;;;6.72;1.30;;;;;;;10.29;76.02;95449.25;2070280;28;20250;-64
2022/11/18 14:53:43;;;;;;;5.53;1.30;;;;;;;10.10;74.86;95441.72;2073336;28;20241;-64
2022/11/18 14:54:48;;;;;;;5.95;1.50;;;;;;;10.17;75.23;95441.34;2076743;28;20317;-64
2022/11/18 14:55:55;;;;;;;6.57;1.20;;;;;;;10.07;75.37;95448.94;2074631;28;20203;-64
2022/11/18 14:57:00;;;;;;;4.43;1.20;;;;;;;10.32;75.77;95452.63;2074087;28;20632;-65
2022/11/18 14:58:01;;;;;;;4.70;1.15;;;;;;;10.26;74.64;95446.03;2074162;28;20210;-64
2022/11/18 14:59:03;;;;;;;9.77;1.50;;;;;;;10.29;74.73;95451.84;2072659;28;20329;-64
2022/11/18 15:00:13;;;;;;;3.75;1.88;;;;;;;10.11;75.89;95448.63;2074158;28;20196;-64
2022/11/18 15:01:14;;;;;;;7.32;3.35;;;;;;;9.77;77.08;95452.47;2074386;28;20238;-64
2022/11/18 15:02:16;;;;;;;10.15;1.83;;;;;;;9.18;77.53;95435.09;2077339;28;20202;-64
2022/11/18 15:03:18;;;;;;;2.78;1.33;;;;;;;8.82;78.00;95449.28;2076127;28;20210;-64
2022/11/18 15:04:20;;;;;;;3.05;1.20;;;;;;;8.66;79.76;95457.97;2072146;28;20236;-64
2022/11/18 15:05:22;;;;;;;11.65;1.65;;;;;;;8.49;81.00;95453.72;2069813;28;20290;-66
2022/11/18 15:06:24;;;;;;;4.00;1.55;;;;;;;8.21;81.19;95437.91;2075880;28;20205;-67
2022/11/18 15:07:25;;;;;;;10.77;1.55;;;;;;;8.13;81.72;95456.53;2074598;28;20207;-66
2022/11/18 15:08:27;;;;;;;6.07;1.80;;;;;;;7.94;82.78;95439.28;2074974;28;20253;-66
2022/11/18 15:09:28;;;;;;;6.10;2.10;;;;;;;7.98;83.51;95455.56;2083103;28;20198;-66
2022/11/18 15:10:30;;;;;;;4.45;1.50;;;;;;;7.95;83.91;95446.19;2082592;28;20637;-66
2022/11/18 15:11:31;;;;;;;6.72;1.98;;;;;;;7.87;83.28;95466.53;2075008;28;20284;-66
2022/11/18 15:12:33;;;;;;;5.13;2.15;;;;;;;7.73;83.80;95462.06;2073441;28;20210;-65
2022/11/18 15:13:34;;;;;;;4.05;1.70;;;;;;;7.71;84.69;95450.91;2075114;28;20236;-66
2022/11/18 15:14:35;;;;;;;4.50;1.65;;;;;;;7.64;84.65;95446.94;2072816;28;20229;-66
2022/11/18 15:15:37;;;;;;;7.57;1.83;;;;;;;7.66;84.32;95458.13;2071932;28;20284;-65
2022/11/18 15:16:43;;;;;;;3.63;1.40;;;;;;;7.64;84.14;95468.59;2077027;28;20708;-66
2022/11/18 15:17:44;;;;;;;3.72;1.52;;;;;;;7.54;84.75;95456.97;2070930;28;20208;-66
2022/11/18 15:18:54;;;;;;;6.53;1.80;;;;;;;7.53;85.52;95463.09;2072366;28;20236;-66
2022/11/18 15:19:55;;;;;;;5.13;1.85;;;;;;;7.48;85.54;95463.34;2072811;28;20202;-65
2022/11/18 15:20:57;;;;;;;4.03;1.65;;;;;;;7.48;85.16;95460.75;2072210;28;20198;-65
2022/11/18 15:21:59;;;;;;;5.00;1.83;;;;;;;7.44;85.42;95466.16;2075840;28;20227;-65
2022/11/18 15:23:00;;;;;;;4.68;1.63;;;;;;;7.39;85.35;95462.97;2073002;28;20202;-66
2022/11/18 15:24:02;;;;;;;5.53;1.63;;;;;;;7.42;86.26;95468.00;2068992;28;20226;-66
2022/11/18 15:25:04;;;;;;;4.70;1.90;;;;;;;7.37;86.26;95472.59;2072124;28;20209;-66
2022/11/18 15:26:37;;;;;;;3.25;1.25;;;;;;;7.29;85.93;95470.41;2072462;28;20347;-64
2022/11/18 15:27:38;;;;;;;11.18;1.70;;;;;;;7.11;86.56;95451.34;2073568;28;20207;-63
2022/11/18 15:28:40;;;;;;;8.68;1.50;;;;;;;7.17;87.11;95466.63;2071660;28;20232;-63
2022/11/18 15:29:41;;;;;;;14.50;2.28;;;;;;;7.21;87.43;95480.31;2072582;28;20228;-64
2022/11/18 15:30:42;;;;;;;12.15;2.65;;;;;;;7.21;87.60;95475.13;2071997;28;20237;-64
2022/11/18 15:31:45;;;;;;;7.90;3.53;;;;;;;7.08;88.03;95467.94;2074622;28;20209;-64
2022/11/18 15:32:50;;;;;;;15.75;5.68;;;;;;;7.10;88.01;95480.84;2071938;28;20613;-64
2022/11/18 15:33:51;;;;;;;15.40;4.78;;;;;;;7.03;87.43;95475.09;2070169;28;20254;-64
2022/11/18 15:34:53;;;;;;;26.05;5.80;;;;;;;7.00;87.65;95467.47;2072359;28;20208;-64
2022/11/18 15:35:54;;;;;;;15.35;7.35;;;;;;;6.94;88.22;95465.19;2073681;28;20213;-64
2022/11/18 15:36:55;;;;;;;18.75;6.82;;;;;;;6.97;88.25;95475.41;2074153;28;20217;-64
2022/11/18 15:38:00;;;;;;;13.90;5.32;;;;;;;6.92;88.40;95479.97;2073929;28;20225;-64
2022/11/18 15:39:02;;;;;;;12.13;4.43;;;;;;;6.88;88.70;95483.66;2074277;28;20222;-64
2022/11/18 15:40:03;;;;;;;8.60;3.00;;;;;;;6.82;88.29;95475.25;2074625;28;20747;-64
2022/11/18 15:41:06;;;;;;;8.38;2.55;;;;;;;6.75;88.75;95478.22;2074514;28;20193;-64
2022/11/18 15:42:07;;;;;;;8.23;2.30;;;;;;;6.59;89.35;95475.50;2075091;28;20704;-64
2022/11/18 15:43:11;;;;;;;4.13;2.20;;;;;;;6.63;89.62;95480.47;2074370;28;20224;-63
2022/11/18 15:44:13;;;;;;;11.43;2.50;;;;;;;6.65;89.86;95478.66;2077327;28;20730;-64
2022/11/18 15:45:14;;;;;;;8.90;2.20;;;;;;;6.60;90.07;95475.44;2077015;28;20284;-64
2022/11/18 15:46:18;;;;;;;4.80;2.03;;;;;;;6.60;89.96;95480.63;2073844;28;20277;-63
2022/11/18 15:47:19;;;;;;;8.52;2.20;;;;;;;6.49;89.94;95465.56;2062799;28;20198;-64
2022/11/18 15:48:21;;;;;;;6.20;2.08;;;;;;;6.52;90.17;95477.56;2082990;28;20647;-63
2022/11/18 15:49:22;;;;;;;8.68;2.88;;;;;;;6.40;90.57;95466.00;2093055;28;20223;-64
2022/11/18 15:50:23;;;;;;;6.90;2.47;;;;;;;6.42;90.46;95468.53;2075208;28;20284;-64
2022/11/18 15:51:27;;;;;;;4.55;2.17;;;;;;;6.37;90.86;95474.78;2077586;28;20656;-63
2022/11/18 15:52:29;;;;;;;5.22;2.20;;;;;;;6.36;91.19;95478.28;2074104;28;20293;-64
2022/11/18 15:53:30;;;;;;;6.85;2.65;;;;;;;6.31;90.86;95472.47;2073492;28;20700;-64
2022/11/18 15:54:31;;;;;;;6.88;2.85;;;;;;;6.27;90.77;95465.75;2074645;28;20198;-64
2022/11/18 15:55:33;;;;;;;4.25;1.83;;;;;;;6.08;90.71;95446.75;2074585;28;20236;-64
2022/11/18 15:56:40;;;;;;;5.78;2.08;;;;;;;6.11;91.36;95460.41;2073048;28;20205;-64
2022/11/18 15:57:41;;;;;;;5.15;1.73;;;;;;;6.13;90.87;95465.53;2074908;28;20657;-64
2022/11/18 15:58:58;;;;;;;6.00;1.60;;;;;;;6.15;91.25;95474.09;2072450;28;20626;-64
2022/11/18 16:00:00;;;;;;;10.23;1.90;;;;;;;6.08;91.44;95472.66;2072534;28;20301;-64
2022/11/18 16:01:01;;;;;;;3.58;1.27;;;;;;;6.09;91.50;95476.94;2071812;28;20205;-64
2022/11/18 16:02:03;;;;;;;4.78;1.55;;;;;;;6.04;91.44;95477.16;2074727;28;20698;-64
2022/11/18 16:03:08;;;;;;;8.15;1.65;;;;;;;5.93;91.31;95459.47;2074526;28;20886;-64
2022/11/18 16:04:11;;;;;;;7.35;1.50;;;;;;;6.02;91.18;95479.00;2073868;28;20207;-64
2022/11/18 16:05:13;;;;;;;6.05;1.80;;;;;;;5.88;91.74;95464.03;2072672;28;20205;-64
2022/11/18 16:06:14;;;;;;;14.75;2.10;;;;;;;5.92;91.87;95481.13;2074607;28;20258;-64
2022/11/18 16:07:16;;;;;;;8.40;2.00;;;;;;;5.82;91.80;95469.47;2075225;28;20207;-64
2022/11/18 16:08:21;;;;;;;10.63;2.20;;;;;;;5.87;91.74;95473.53;2073125;28;20202;-63
2022/11/18 16:09:22;;;;;;;7.25;2.47;;;;;;;5.84;91.59;95480.59;2072933;28;20770;-65
2022/11/18 16:13:03;;;;;;;6.07;2.45;;;;;;;5.74;92.15;95477.59;2073755;28;20208;-65
2022/11/18 16:14:08;;;;;;;5.53;2.33;;;;;;;5.71;91.91;95481.16;2073036;28;20228;-65
2022/11/18 16:16:30;;;;;;;5.82;3.22;;;;;;;5.69;92.00;95476.97;2072414;28;20220;-65
2022/11/18 16:17:31;;;;;;;8.75;2.70;;;;;;;5.71;92.15;95481.16;2072327;28;20297;-65
2022/11/18 16:18:33;;;;;;;7.35;2.78;;;;;;;5.44;92.12;95436.59;2073132;28;20244;-64
2022/11/18 16:19:42;;;;;;;14.85;3.22;;;;;;;5.61;91.89;95460.91;2073573;28;21141;-64
2022/11/18 16:20:43;;;;;;;11.02;2.30;;;;;;;5.55;92.04;95455.09;2073672;28;20224;-61
2022/11/18 16:21:47;;;;;;;13.35;2.45;;;;;;;5.70;92.03;95487.25;2071326;28;20705;-61
2022/11/18 16:22:50;;;;;;;10.10;2.80;;;;;;;5.75;92.18;95483.59;2074611;28;20214;-62
